KECPKDHN

Guest
Details From KECP - Northwest Florida International
To KDHN - Dothan Rgnl
Flight Number -
Tags generated
Created
Modified
Stats Distance 61 nm / 113 km
Max Altitude 500 ft / 152 m
Waypoints 3
Social Downloads 1
Likes 0
Share VATSIM

Download

Looking for another format? Having issues loading an existing format? Contact us
Advertisement - Login to hide

Notes

Basic altitude profile: - Ascent Rate: 2500ft/min - Ascent Speed: 200kts - Cruise Altitude: 1000000ft - Cruise Speed: 300kts - Descent Rate: 1500ft/min - Descent Speed: 200kts Options: - Use NATs: yes - Use PACOTS: yes - Use low airways: yes - Use high airways: no

Route

KECP RRS KDHN

ID Type Via Altitude Latitude Longitude Leg Dist Tot Dist Heading (true) Name
O KECP APT - 0 ft / 0 m 30.35824˚ -85.79560˚ - 0 nm - Northwest Florida International
RRS VOR - 500 ft / 152 m 31.28458˚ -85.43122˚ 58 nm 58 nm 19° / 19° WIREGRASS VORTAC
O KDHN APT - 0 ft / 0 m 31.32101˚ -85.44879˚ 2 nm 61 nm 338° / 338° Dothan Rgnl

Altitude Profile

Advertisement - Login to hide

KECP

Details ICAO KECP (ECP)
Name Northwest Florida International
Region United States
Timezone America/Chicago (UTC-6.0)
Stats Elevation 69 ft / 21 m (AMSL)
Location 30.358241° -85.795603°
Runways 1
Magnetic Variation 3.739° W

METAR

KECP 160053Z 34007KT 10SM OVC100 09/02 A3018 RMK AO2 SLP231 T00890017

Decode

TAF

TAF KECP 152320Z 1600/1624 34007KT P6SM BKN090 FM160500 02007KT P6SM BKN100 FM161500 06007KT P6SM BKN250

Decode

Departure Runways

ID Width Length Bearing (true) Bearing (mag) Surface Threshold Offset Overrun Length
16 151 ft / 46 m 10,027 ft / 3,056 m 159.44° 163.18° Concrete 0 ft / 0 m 200 ft / 61 m
34 151 ft / 46 m 10,027 ft / 3,056 m 339.45° 343.19° Concrete 0 ft / 0 m 200 ft / 61 m

KDHN

Details ICAO KDHN (DHN)
Name Dothan Rgnl
Region United States
Timezone America/Chicago (UTC-6.0)
Stats Elevation 401 ft / 122 m (AMSL)
Location 31.321005° -85.448787°
Runways 2
Magnetic Variation 4.092° W

METAR

KDHN 160053Z 34006KT 10SM BKN110 07/00 A3022 RMK AO2 SLP236 T00670000

Decode

TAF

TAF KDHN 152320Z 1600/1624 33008KT P6SM BKN100 FM160600 02006KT P6SM BKN200 FM161500 08006KT P6SM BKN250

Decode

Destination Runways

ID Width Length Bearing (true) Bearing (mag) Surface Threshold Offset Overrun Length
14 150 ft / 46 m 8,504 ft / 2,592 m 135.08° 139.17° Asphalt 0 ft / 0 m 0 ft / 0 m
18 150 ft / 46 m 5,016 ft / 1,529 m 179.99° 184.08° Asphalt 0 ft / 0 m 0 ft / 0 m
32 150 ft / 46 m 8,504 ft / 2,592 m 315.09° 319.18° Asphalt 0 ft / 0 m 0 ft / 0 m
36 150 ft / 46 m 5,016 ft / 1,529 m 359.99° 4.08° Asphalt 0 ft / 0 m 0 ft / 0 m

Approach Navaids

Runway Type Ident Frequency Range Bearing (true) Bearing (mag) Slope Elevation
32 Localiser IDHN 108.30 MHz 18 nm / 33 km 315.07° 319.17° - 401 ft / 122 m (AMSL)
32 Glidescope IDHN 108.30 MHz 10 nm / 19 km 315.08° 319.18° 3.00° 374 ft / 114 m (AMSL)